Saquarema, Brazil
Current Conditions -  °F | °C
As of 1:00 PM on Wednesday 22 Oct 2014 (Local Time) from SBCB Reporting Station
Few Clouds Few Clouds  
Wind Chill: 84°   Ceiling: Unl
Heat Index: 84°   Visibility: 6mi
Dew Point: 61°   Wind: 13mph
Humidity: 45%   Direction: 110°ESE
Pressure: 30.18"   Gusts: NA
Location:  22.93°S, 42.53°W
Report Text: SBCB 221500Z 11011KT 9999 FEW020 29/16 Q1022
Loading
Personal Weather Stations






























Interactive Weather Map
Tropical Storm Tracking
New forecast layout! Learn more

10-Day Weather Forecast

Advertisements
Track Severe Weather on mobile